createdAt,value
2023-08-08T00:02:21.807Z,97508.73
2023-08-08T00:04:51.367Z,97507.14
2023-08-08T00:07:19.400Z,97512.33
2023-08-08T00:09:47.441Z,97512.64
2023-08-08T00:12:15.538Z,97517.91
2023-08-08T00:14:43.559Z,97523.92
2023-08-08T00:17:11.560Z,97527.15
2023-08-08T00:19:39.559Z,97523.00
2023-08-08T00:22:07.799Z,97527.94
2023-08-08T00:24:35.818Z,97529.98
2023-08-08T00:27:04.104Z,97529.53
2023-08-08T00:29:32.616Z,97532.23
2023-08-08T00:32:00.956Z,97533.98
2023-08-08T00:34:29.357Z,97537.23
2023-08-08T00:36:57.381Z,97536.70
2023-08-08T00:39:25.384Z,97542.41
2023-08-08T00:41:53.504Z,97538.91
2023-08-08T00:44:21.464Z,97536.21
2023-08-08T00:46:49.844Z,97536.50
2023-08-08T00:49:18.024Z,97537.69
2023-08-08T00:51:47.834Z,97536.57
2023-08-08T00:54:16.057Z,97542.14
2023-08-08T00:56:44.092Z,97546.66
2023-08-08T00:59:14.997Z,97546.19
2023-08-08T01:01:43.865Z,97550.02
2023-08-08T01:04:13.233Z,97548.96
2023-08-08T01:06:49.188Z,97552.65
2023-08-08T01:09:30.009Z,97549.48
2023-08-08T01:11:59.018Z,97549.50
2023-08-08T01:14:31.697Z,97550.94
2023-08-08T01:17:01.225Z,97550.40
2023-08-08T01:19:31.760Z,97553.67
2023-08-08T01:22:06.706Z,97559.69
2023-08-08T01:24:38.421Z,97554.06
2023-08-08T01:27:07.650Z,97556.09
2023-08-08T01:29:35.835Z,97560.73
2023-08-08T01:32:04.221Z,97559.84
2023-08-08T01:34:32.389Z,97559.26
2023-08-08T01:37:29.821Z,97553.31
2023-08-08T01:40:00.629Z,97559.16
2023-08-08T01:42:30.139Z,97558.86
2023-08-08T01:44:59.053Z,97564.64
2023-08-08T01:47:27.145Z,97558.79
2023-08-08T01:49:55.165Z,97560.19
2023-08-08T01:52:24.161Z,97559.88
2023-08-08T01:54:52.102Z,97561.61
2023-08-08T01:57:20.127Z,97558.60
2023-08-08T01:59:48.213Z,97557.92
2023-08-08T02:02:18.496Z,97558.11
2023-08-08T02:04:46.508Z,97559.84
2023-08-08T02:07:15.254Z,97561.33
2023-08-08T02:09:47.312Z,97563.14
2023-08-08T02:12:15.417Z,97562.02
2023-08-08T02:14:43.422Z,97561.00
2023-08-08T02:17:11.526Z,97566.08
2023-08-08T02:19:39.627Z,97573.70
2023-08-08T02:22:07.605Z,97577.63
2023-08-08T02:24:35.684Z,97579.56
2023-08-08T02:27:03.969Z,97580.23
2023-08-08T02:29:32.016Z,97579.34
2023-08-08T02:32:01.570Z,97580.98
2023-08-08T02:34:29.965Z,97584.07
2023-08-08T02:36:58.162Z,97585.16
2023-08-08T02:39:26.130Z,97589.46
2023-08-08T02:41:54.121Z,97594.83
2023-08-08T02:44:23.811Z,97589.97
2023-08-08T02:46:52.927Z,97592.65
2023-08-08T02:49:20.939Z,97594.55
2023-08-08T02:51:49.719Z,97597.13
2023-08-08T02:54:18.426Z,97605.41
2023-08-08T02:56:46.514Z,97607.08
2023-08-08T02:59:14.748Z,97615.05
2023-08-08T03:01:42.985Z,97616.75
2023-08-08T03:04:16.695Z,97615.01
2023-08-08T03:06:44.685Z,97620.30
2023-08-08T03:09:12.847Z,97617.45
2023-08-08T03:11:42.819Z,97620.55
2023-08-08T03:14:12.238Z,97623.46
2023-08-08T03:16:40.779Z,97624.98
2023-08-08T03:19:09.552Z,97628.17
2023-08-08T03:21:38.645Z,97631.21
2023-08-08T03:24:07.010Z,97629.75
2023-08-08T03:26:35.166Z,97633.81
2023-08-08T03:29:03.177Z,97634.53
2023-08-08T03:31:35.523Z,97641.65
2023-08-08T03:34:05.675Z,97643.46
2023-08-08T03:36:33.944Z,97641.03
2023-08-08T03:39:02.141Z,97642.93
2023-08-08T03:41:30.775Z,97644.91
2023-08-08T03:43:58.731Z,97641.42
2023-08-08T03:46:27.006Z,97638.66
2023-08-08T03:48:55.715Z,97650.71
2023-08-08T03:51:23.804Z,97652.98
2023-08-08T03:53:51.787Z,97654.91
2023-08-08T03:56:19.801Z,97659.35
2023-08-08T03:58:48.104Z,97661.10
2023-08-08T04:01:16.106Z,97665.30
2023-08-08T04:03:44.092Z,97669.50
2023-08-08T04:06:12.081Z,97674.91
2023-08-08T04:08:40.746Z,97674.03
2023-08-08T04:11:09.791Z,97684.90
2023-08-08T04:13:38.274Z,97688.17
2023-08-08T04:16:06.276Z,97681.02
2023-08-08T04:18:34.373Z,97685.34
2023-08-08T04:21:02.374Z,97687.65
2023-08-08T04:23:30.286Z,97690.17
2023-08-08T04:25:58.500Z,97690.58
2023-08-08T04:28:26.441Z,97693.56
2023-08-08T04:30:54.418Z,97692.66
2023-08-08T04:33:22.369Z,97700.20
2023-08-08T04:35:50.303Z,97698.11
2023-08-08T04:38:18.972Z,97702.43
2023-08-08T04:40:47.051Z,97703.13
2023-08-08T04:43:14.979Z,97709.31
2023-08-08T04:45:42.969Z,97713.52
2023-08-08T04:48:11.325Z,97717.00
2023-08-08T04:50:40.337Z,97726.16
2023-08-08T04:53:08.330Z,97727.39
2023-08-08T04:55:36.236Z,97730.83
2023-08-08T04:58:04.454Z,97737.77
2023-08-08T05:00:32.452Z,97739.62
2023-08-08T05:03:00.782Z,97750.24
2023-08-08T05:05:28.874Z,97750.81
2023-08-08T05:07:56.777Z,97754.96
2023-08-08T05:10:24.938Z,97753.41
2023-08-08T05:12:52.919Z,97758.88
2023-08-08T05:15:20.831Z,97756.53
2023-08-08T05:17:48.793Z,97762.81
2023-08-08T05:20:17.482Z,97771.21
2023-08-08T05:22:45.438Z,97775.05
2023-08-08T05:25:13.579Z,97775.61
2023-08-08T05:27:41.894Z,97774.45
2023-08-08T05:30:10.096Z,97774.11
2023-08-08T05:32:38.341Z,97777.64
2023-08-08T05:35:07.181Z,97776.80
2023-08-08T05:37:35.219Z,97775.59
2023-08-08T05:40:03.632Z,97777.44
2023-08-08T05:42:33.090Z,97778.23
2023-08-08T05:45:01.199Z,97772.98
2023-08-08T05:47:29.187Z,97771.70
2023-08-08T05:49:57.264Z,97765.17
2023-08-08T05:52:25.359Z,97765.23
2023-08-08T05:54:53.526Z,97765.27
2023-08-08T05:57:22.721Z,97766.70
2023-08-08T05:59:51.437Z,97769.20
2023-08-08T06:02:19.357Z,97765.58
2023-08-08T06:04:47.292Z,97767.34
2023-08-08T06:07:15.368Z,97765.80
2023-08-08T06:09:43.541Z,97766.49
2023-08-08T06:12:11.775Z,97763.77
2023-08-08T06:14:39.819Z,97765.66
2023-08-08T06:17:07.789Z,97763.22
2023-08-08T06:19:35.712Z,97763.16
2023-08-08T06:22:04.704Z,97765.84
2023-08-08T06:24:33.187Z,97763.64
2023-08-08T06:27:01.154Z,97765.48
2023-08-08T06:29:29.115Z,97770.42
2023-08-08T06:31:57.408Z,97771.77
2023-08-08T06:34:25.465Z,97770.91
2023-08-08T06:36:53.547Z,97774.45
2023-08-08T06:39:23.026Z,97776.77
2023-08-08T06:41:50.987Z,97779.49
2023-08-08T06:44:22.774Z,97778.21
2023-08-08T06:46:50.754Z,97783.91
2023-08-08T06:49:18.716Z,97780.08
2023-08-08T06:51:46.685Z,97780.92
2023-08-08T06:54:14.599Z,97775.73
2023-08-08T06:56:42.661Z,97773.02
2023-08-08T06:59:10.601Z,97770.34
2023-08-08T07:01:38.625Z,97771.05
2023-08-08T07:04:06.759Z,97775.60
2023-08-08T07:06:35.006Z,97775.00
2023-08-08T07:09:03.587Z,97767.48
2023-08-08T07:11:31.597Z,97769.00
2023-08-08T07:13:59.573Z,97768.16
2023-08-08T07:16:27.567Z,97772.75
2023-08-08T07:18:56.813Z,97770.36
2023-08-08T07:21:25.080Z,97770.99
2023-08-08T07:23:53.246Z,97771.37
2023-08-08T07:26:21.287Z,97771.99
2023-08-08T07:28:49.225Z,97775.06
2023-08-08T07:31:17.239Z,97775.49
2023-08-08T07:33:45.235Z,97769.38
2023-08-08T07:36:13.174Z,97768.68
2023-08-08T07:38:41.365Z,97763.86
2023-08-08T07:41:09.342Z,97764.75
2023-08-08T07:43:37.331Z,97772.40
2023-08-08T07:46:05.364Z,97770.36
2023-08-08T07:48:33.353Z,97768.36
2023-08-08T07:51:01.248Z,97774.02
2023-08-08T07:53:29.217Z,97768.90
2023-08-08T07:56:26.104Z,97767.30
2023-08-08T07:58:54.176Z,97769.15
2023-08-08T08:01:22.182Z,97772.21
2023-08-08T08:03:50.274Z,97767.11
2023-08-08T08:06:18.401Z,97770.78
2023-08-08T08:08:46.376Z,97769.28
2023-08-08T08:11:14.391Z,97770.42
2023-08-08T08:13:42.434Z,97775.21
2023-08-08T08:16:10.686Z,97765.08
2023-08-08T08:18:38.794Z,97760.38
2023-08-08T08:21:06.800Z,97772.44
2023-08-08T08:23:34.839Z,97758.02
2023-08-08T08:26:02.811Z,97756.34
2023-08-08T08:28:30.717Z,97751.92
2023-08-08T08:30:58.775Z,97747.35
2023-08-08T08:33:26.744Z,97754.47
2023-08-08T08:35:54.710Z,97751.80
2023-08-08T08:38:22.640Z,97751.83
2023-08-08T08:40:55.168Z,97747.78
2023-08-08T08:43:23.649Z,97750.16
2023-08-08T08:45:55.209Z,97760.91
2023-08-08T08:48:23.751Z,97765.60
2023-08-08T08:50:52.184Z,97753.74
2023-08-08T08:53:20.330Z,97754.34
2023-08-08T08:55:48.917Z,97754.85
2023-08-08T08:58:20.015Z,97748.40
2023-08-08T09:00:48.994Z,97742.52
2023-08-08T09:03:17.381Z,97742.75
2023-08-08T09:05:46.388Z,97748.02
2023-08-08T09:08:14.697Z,97741.11
2023-08-08T09:10:42.624Z,97740.20
2023-08-08T09:13:11.349Z,97738.98
2023-08-08T09:15:39.302Z,97737.69
2023-08-08T09:18:08.917Z,97741.02
2023-08-08T09:20:36.976Z,97742.04
2023-08-08T09:23:05.225Z,97741.98
2023-08-08T09:25:33.196Z,97739.83
2023-08-08T09:28:01.263Z,97745.48
2023-08-08T09:30:31.586Z,97736.91
2023-08-08T09:33:02.927Z,97731.66
2023-08-08T09:35:31.708Z,97738.45
2023-08-08T09:38:00.262Z,97733.33
2023-08-08T09:40:29.117Z,97731.16
2023-08-08T09:42:58.031Z,97728.41
2023-08-08T09:45:25.950Z,97722.85
2023-08-08T09:47:54.205Z,97732.22
2023-08-08T09:50:22.450Z,97727.63
2023-08-08T09:52:50.984Z,97740.44
2023-08-08T09:55:19.951Z,97733.90
2023-08-08T09:57:49.877Z,97737.39
2023-08-08T10:00:18.145Z,97741.40
2023-08-08T10:02:47.092Z,97733.14
2023-08-08T10:05:17.360Z,97732.50
2023-08-08T10:07:46.390Z,97740.37
2023-08-08T10:10:14.746Z,97730.13
2023-08-08T10:12:43.387Z,97728.05
2023-08-08T10:15:12.486Z,97727.14
2023-08-08T10:17:42.756Z,97726.59
2023-08-08T10:20:12.975Z,97723.84
2023-08-08T10:22:48.101Z,97723.59
2023-08-08T10:25:34.234Z,97728.27
2023-08-08T10:30:48.517Z,97730.95
2023-08-08T10:33:21.233Z,97731.91
2023-08-08T10:35:57.818Z,97729.34
2023-08-08T10:38:27.019Z,97729.09
2023-08-08T10:40:59.566Z,97721.58
2023-08-08T10:43:29.720Z,97721.73
2023-08-08T10:46:14.128Z,97718.21
2023-08-08T10:48:57.758Z,97710.09
2023-08-08T10:51:44.248Z,97704.16
2023-08-08T10:54:28.815Z,97714.21
2023-08-08T10:56:59.558Z,97716.23
2023-08-08T10:59:38.875Z,97716.33
2023-08-08T11:02:07.790Z,97718.37
2023-08-08T11:04:37.174Z,97711.47
2023-08-08T11:07:05.448Z,97713.53
2023-08-08T11:09:33.629Z,97709.39
2023-08-08T11:12:01.965Z,97717.98
2023-08-08T11:14:31.033Z,97707.65
2023-08-08T11:16:59.155Z,97709.02
2023-08-08T11:19:27.139Z,97713.20
2023-08-08T11:21:55.206Z,97715.55
2023-08-08T11:24:23.217Z,97723.55
2023-08-08T11:26:52.672Z,97733.95
2023-08-08T11:29:20.752Z,97737.80
2023-08-08T11:31:49.655Z,97739.42
2023-08-08T11:34:19.012Z,97743.19
2023-08-08T11:36:47.516Z,97746.09
2023-08-08T11:39:15.681Z,97738.23
2023-08-08T11:41:43.855Z,97740.83
2023-08-08T11:44:12.737Z,97736.76
2023-08-08T11:46:47.852Z,97741.42
2023-08-08T11:49:18.216Z,97732.58
2023-08-08T11:51:47.200Z,97731.89
2023-08-08T11:54:15.930Z,97736.04
2023-08-08T11:56:45.096Z,97730.33
2023-08-08T11:59:13.795Z,97726.64
2023-08-08T12:01:42.833Z,97728.86
2023-08-08T12:04:11.459Z,97732.48
2023-08-08T12:06:40.664Z,97731.80
2023-08-08T12:09:08.749Z,97734.14
2023-08-08T12:11:38.368Z,97732.66
2023-08-08T12:14:14.998Z,97722.47
2023-08-08T12:16:45.053Z,97728.98
2023-08-08T12:19:15.696Z,97734.05
2023-08-08T12:21:43.689Z,97735.55
2023-08-08T12:24:11.632Z,97739.34
2023-08-08T12:26:39.661Z,97735.17
2023-08-08T12:29:07.706Z,97734.80
2023-08-08T12:31:36.152Z,97734.98
2023-08-08T12:34:04.433Z,97738.63
2023-08-08T12:36:32.914Z,97739.73
2023-08-08T12:39:01.040Z,97742.23
2023-08-08T12:41:30.817Z,97744.26
2023-08-08T12:43:58.841Z,97747.13
2023-08-08T12:46:27.149Z,97745.86
2023-08-08T12:48:55.403Z,97747.09
2023-08-08T12:51:23.499Z,97744.13
2023-08-08T12:53:51.965Z,97753.58
2023-08-08T12:56:20.064Z,97750.52
2023-08-08T12:58:48.121Z,97746.30
2023-08-08T13:01:16.091Z,97740.53
2023-08-08T13:03:48.341Z,97739.19
2023-08-08T13:06:24.157Z,97734.39
2023-08-08T13:08:52.069Z,97744.22
2023-08-08T13:11:20.006Z,97738.14
2023-08-08T13:13:48.010Z,97741.58
2023-08-08T13:16:16.532Z,97742.91
2023-08-08T13:18:44.599Z,97746.48
2023-08-08T13:21:13.765Z,97745.48
2023-08-08T13:23:43.386Z,97747.61
2023-08-08T13:26:11.587Z,97745.96
2023-08-08T13:28:40.184Z,97736.94
2023-08-08T13:31:09.388Z,97744.21
2023-08-08T13:33:37.575Z,97747.00
2023-08-08T13:36:05.839Z,97752.94
2023-08-08T13:38:34.137Z,97751.52
2023-08-08T13:41:02.320Z,97749.73
2023-08-08T13:43:32.768Z,97749.80
2023-08-08T13:46:01.733Z,97744.17
2023-08-08T13:48:29.876Z,97750.45
2023-08-08T13:50:57.907Z,97740.45
2023-08-08T13:53:25.858Z,97746.14
2023-08-08T13:55:53.765Z,97740.70
2023-08-08T13:58:24.807Z,97744.85
2023-08-08T14:00:53.448Z,97740.17
2023-08-08T14:03:21.512Z,97738.48
2023-08-08T14:05:49.520Z,97735.47
2023-08-08T14:08:17.526Z,97727.04
2023-08-08T14:10:46.551Z,97722.71
2023-08-08T14:13:14.543Z,97725.38
2023-08-08T14:15:42.593Z,97728.59
2023-08-08T14:18:11.644Z,97726.02
2023-08-08T14:20:39.646Z,97729.16
2023-08-08T14:23:07.669Z,97729.51
2023-08-08T14:25:35.653Z,97729.83
2023-08-08T14:28:05.278Z,97732.02
2023-08-08T14:30:33.243Z,97737.76
2023-08-08T14:33:01.351Z,97738.56
2023-08-08T14:35:29.376Z,97742.06
2023-08-08T14:37:57.385Z,97723.00
2023-08-08T14:40:25.727Z,97750.59
2023-08-08T14:42:56.218Z,97750.46
2023-08-08T14:45:25.368Z,97748.98
2023-08-08T14:47:53.729Z,97754.52
2023-08-08T14:50:21.721Z,97761.92
2023-08-08T14:52:49.645Z,97762.13
2023-08-08T14:55:17.609Z,97760.10
2023-08-08T14:57:45.649Z,97755.89
2023-08-08T15:00:13.981Z,97758.41
2023-08-08T15:02:42.044Z,97758.90
2023-08-08T15:05:10.221Z,97760.17
2023-08-08T15:07:38.289Z,97762.39
2023-08-08T15:10:06.642Z,97758.60
2023-08-08T15:12:34.609Z,97756.96
2023-08-08T15:15:04.939Z,97755.48
2023-08-08T15:17:34.123Z,97754.94
2023-08-08T15:20:02.757Z,97752.55
2023-08-08T15:22:30.741Z,97752.58
2023-08-08T15:24:58.737Z,97753.08
2023-08-08T15:27:26.815Z,97753.33
2023-08-08T15:29:54.761Z,97756.65
2023-08-08T15:32:23.328Z,97756.12
2023-08-08T15:34:51.287Z,97758.81
2023-08-08T15:37:19.254Z,97762.13
2023-08-08T15:39:47.219Z,97766.52
2023-08-08T15:42:15.216Z,97769.52
2023-08-08T15:44:43.302Z,97762.89
2023-08-08T15:47:11.388Z,97771.09
2023-08-08T15:49:39.340Z,97764.04
2023-08-08T15:52:07.403Z,97766.95
2023-08-08T15:54:35.478Z,97765.05
2023-08-08T15:57:03.973Z,97760.81
2023-08-08T15:59:32.570Z,97761.50
2023-08-08T16:02:00.580Z,97768.39
2023-08-08T16:04:28.678Z,97761.09
2023-08-08T16:06:56.606Z,97762.16
2023-08-08T16:09:24.570Z,97763.10
2023-08-08T16:11:52.605Z,97762.97
2023-08-08T16:14:21.225Z,97763.63
2023-08-08T16:16:49.296Z,97763.42
2023-08-08T16:19:17.867Z,97758.54
2023-08-08T16:21:45.814Z,97762.88
2023-08-08T16:24:13.852Z,97763.14
2023-08-08T16:26:41.772Z,97766.27
2023-08-08T16:29:10.514Z,97769.34
2023-08-08T16:31:41.829Z,97763.88
2023-08-08T16:34:09.881Z,97763.49
2023-08-08T16:36:40.129Z,97771.56
2023-08-08T16:39:18.099Z,97776.02
2023-08-08T16:41:47.422Z,97769.88
2023-08-08T16:44:15.982Z,97767.59
2023-08-08T16:46:44.028Z,97767.77
2023-08-08T16:49:12.136Z,97766.27
2023-08-08T16:51:41.032Z,97768.34
2023-08-08T16:54:09.014Z,97769.42
2023-08-08T16:56:37.409Z,97762.53
2023-08-08T16:59:05.843Z,97767.34
2023-08-08T17:01:33.877Z,97770.11
2023-08-08T17:04:01.842Z,97770.45
2023-08-08T17:06:29.893Z,97774.75
2023-08-08T17:08:58.094Z,97771.04
2023-08-08T17:11:28.857Z,97769.70
2023-08-08T17:13:58.273Z,97769.04
2023-08-08T17:16:26.497Z,97771.20
2023-08-08T17:18:54.520Z,97772.96
2023-08-08T17:21:22.519Z,97770.34
2023-08-08T17:23:50.541Z,97766.76
2023-08-08T17:26:18.660Z,97767.30
2023-08-08T17:28:48.483Z,97769.04
2023-08-08T17:31:20.537Z,97767.04
2023-08-08T17:33:51.440Z,97769.63
2023-08-08T17:36:54.914Z,97768.52
2023-08-08T17:39:28.114Z,97776.79
2023-08-08T17:41:58.613Z,97771.22
2023-08-08T17:44:27.238Z,97772.98
2023-08-08T17:46:57.025Z,97772.58
2023-08-08T17:49:28.299Z,97771.35
2023-08-08T17:51:56.314Z,97764.67
2023-08-08T17:54:24.265Z,97772.83
2023-08-08T17:56:52.315Z,97768.50
2023-08-08T17:59:20.366Z,97770.54
2023-08-08T18:01:48.624Z,97769.63
2023-08-08T18:04:16.691Z,97776.85
2023-08-08T18:06:44.703Z,97779.36
2023-08-08T18:09:12.777Z,97775.09
2023-08-08T18:11:40.848Z,97779.83
2023-08-08T18:14:10.499Z,97777.05
2023-08-08T18:16:38.904Z,97781.04
2023-08-08T18:19:07.211Z,97782.90
2023-08-08T18:21:35.937Z,97784.27
2023-08-08T18:24:04.822Z,97782.80
2023-08-08T18:26:32.918Z,97786.21
2023-08-08T18:29:01.092Z,97782.84
2023-08-08T18:31:29.204Z,97783.75
2023-08-08T18:34:01.950Z,97784.98
2023-08-08T18:36:30.995Z,97789.51
2023-08-08T18:38:59.160Z,97786.88
2023-08-08T18:41:27.999Z,97788.06
2023-08-08T18:43:56.275Z,97790.02
2023-08-08T18:46:24.537Z,97792.67
2023-08-08T18:48:52.676Z,97794.59
2023-08-08T18:51:20.665Z,97797.09
2023-08-08T18:53:48.955Z,97795.94
2023-08-08T18:56:16.919Z,97797.97
2023-08-08T18:58:45.053Z,97795.52
2023-08-08T19:01:13.435Z,97798.48
2023-08-08T19:03:42.478Z,97801.16
2023-08-08T19:06:10.567Z,97797.09
2023-08-08T19:08:38.567Z,97803.84
2023-08-08T19:11:06.599Z,97801.77
2023-08-08T19:13:34.751Z,97798.64
2023-08-08T19:16:02.960Z,97799.58
2023-08-08T19:18:31.156Z,97799.75
2023-08-08T19:20:59.198Z,97803.69
2023-08-08T19:23:27.252Z,97800.52
2023-08-08T19:26:00.738Z,97805.52
2023-08-08T19:28:29.071Z,97799.73
2023-08-08T19:30:57.203Z,97794.29
2023-08-08T19:33:25.679Z,97792.78
2023-08-08T19:35:57.777Z,97789.56
2023-08-08T19:38:26.153Z,97789.52
2023-08-08T19:40:55.132Z,97791.64
2023-08-08T19:43:23.091Z,97791.12
2023-08-08T19:45:52.912Z,97790.48
2023-08-08T19:48:21.808Z,97793.41
2023-08-08T19:50:49.809Z,97797.19
2023-08-08T19:53:18.322Z,97794.86
2023-08-08T19:55:46.340Z,97791.95
2023-08-08T19:58:14.405Z,97790.46
2023-08-08T20:00:42.834Z,97790.41
2023-08-08T20:03:10.915Z,97792.79
2023-08-08T20:05:39.274Z,97793.11
2023-08-08T20:08:07.430Z,97791.27
2023-08-08T20:10:36.178Z,97789.42
2023-08-08T20:13:04.877Z,97788.06
2023-08-08T20:15:33.156Z,97786.51
2023-08-08T20:18:01.309Z,97782.53
2023-08-08T20:20:29.364Z,97784.23
2023-08-08T20:22:57.486Z,97785.75
2023-08-08T20:25:25.491Z,97785.67
2023-08-08T20:27:53.446Z,97784.14
2023-08-08T20:30:21.591Z,97781.16
2023-08-08T20:32:49.737Z,97774.83
2023-08-08T20:35:17.825Z,97771.98
2023-08-08T20:37:46.033Z,97771.89
2023-08-08T20:40:13.985Z,97768.80
2023-08-08T20:42:42.897Z,97768.91
2023-08-08T20:45:11.167Z,97765.95
2023-08-08T20:47:39.792Z,97764.54
2023-08-08T20:50:08.856Z,97760.64
2023-08-08T20:52:39.430Z,97764.88
2023-08-08T20:55:08.064Z,97764.52
2023-08-08T20:57:36.422Z,97758.69
2023-08-08T21:00:04.886Z,97755.20
2023-08-08T21:02:32.937Z,97758.67
2023-08-08T21:05:00.950Z,97753.45
2023-08-08T21:07:28.916Z,97755.67
2023-08-08T21:09:56.869Z,97759.04
2023-08-08T21:12:24.899Z,97754.17
2023-08-08T21:14:53.205Z,97753.94
2023-08-08T21:17:21.859Z,97753.60
2023-08-08T21:19:53.712Z,97753.52
2023-08-08T21:22:21.758Z,97754.27
2023-08-08T21:24:49.742Z,97753.67
2023-08-08T21:27:18.711Z,97744.21
2023-08-08T21:29:46.713Z,97743.80
2023-08-08T21:32:14.618Z,97742.64
2023-08-08T21:34:42.564Z,97749.14
2023-08-08T21:37:10.892Z,97761.31
2023-08-08T21:39:39.775Z,97762.36
2023-08-08T21:42:07.781Z,97768.19
2023-08-08T21:44:35.777Z,97773.71
2023-08-08T21:47:04.043Z,97781.92
2023-08-08T21:49:32.305Z,97782.13
2023-08-08T21:52:01.703Z,97790.89
2023-08-08T21:54:30.109Z,97791.36
2023-08-08T21:56:58.037Z,97800.48
2023-08-08T21:59:26.024Z,97792.34
2023-08-08T22:01:54.006Z,97789.96
2023-08-08T22:04:22.204Z,97789.45
2023-08-08T22:06:50.231Z,97772.09
2023-08-08T22:09:18.171Z,97762.70
2023-08-08T22:11:46.096Z,97765.54
2023-08-08T22:14:14.697Z,97766.08
2023-08-08T22:16:42.740Z,97772.69
2023-08-08T22:19:11.246Z,97786.36
2023-08-08T22:21:39.260Z,97796.73
2023-08-08T22:24:07.436Z,97802.61
2023-08-08T22:26:35.599Z,97806.01
2023-08-08T22:29:03.922Z,97816.03
2023-08-08T22:31:32.276Z,97812.72
2023-08-08T22:34:01.410Z,97806.27
2023-08-08T22:36:29.456Z,97807.52
2023-08-08T22:38:57.368Z,97808.90
2023-08-08T22:41:25.498Z,97809.80
2023-08-08T22:43:53.432Z,97795.99
2023-08-08T22:46:24.743Z,97799.92
2023-08-08T22:48:52.805Z,97785.60
2023-08-08T22:51:21.067Z,97759.23
2023-08-08T22:53:49.137Z,97757.67
2023-08-08T22:56:17.263Z,97751.07
2023-08-08T22:58:45.504Z,97746.20
2023-08-08T23:01:13.459Z,97751.20
2023-08-08T23:03:41.701Z,97752.70
2023-08-08T23:06:09.715Z,97754.38
2023-08-08T23:08:37.710Z,97763.13
2023-08-08T23:11:05.691Z,97755.71
2023-08-08T23:13:33.598Z,97758.48
2023-08-08T23:16:01.635Z,97759.81
2023-08-08T23:18:29.592Z,97758.94
2023-08-08T23:20:57.564Z,97767.94
2023-08-08T23:23:25.628Z,97764.74
2023-08-08T23:25:54.665Z,97772.62
2023-08-08T23:28:24.136Z,97771.09
2023-08-08T23:30:52.291Z,97768.16
2023-08-08T23:33:20.384Z,97771.13
2023-08-08T23:35:52.714Z,97773.64
2023-08-08T23:38:20.650Z,97776.34
2023-08-08T23:40:48.699Z,97774.45
2023-08-08T23:43:16.729Z,97773.84
2023-08-08T23:45:44.693Z,97773.87
2023-08-08T23:48:13.533Z,97772.45
2023-08-08T23:50:41.546Z,97772.35
2023-08-08T23:53:09.566Z,97765.61
2023-08-08T23:55:37.520Z,97766.11
2023-08-08T23:58:05.590Z,97763.13
